TimeCST,TemperatureF,Dew PointF,Humidity,Sea Level PressureIn,VisibilityMPH,Wind Direction,Wind SpeedMPH,Gust SpeedMPH,PrecipitationIn,Events,Conditions,WindDirDegrees,DateUTC
12:26 AM,37.4,35.6,93,30.07,2.5,West,9.2,-,0.00,Rain,Light Rain,270,2013-01-09 06:26:00
12:53 AM,37.9,37.0,97,30.04,1.8,West,8.1,-,0.00,Rain,Light Rain,270,2013-01-09 06:53:00
1:04 AM,37.4,37.4,100,30.07,1.8,West,10.4,-,0.00,Rain,Light Rain,270,2013-01-09 07:04:00
1:53 AM,39.0,37.0,93,30.02,1.8,NW,11.5,-,0.02,Rain,Light Rain,310,2013-01-09 07:53:00
2:53 AM,37.9,37.0,97,30.03,1.2,WNW,13.8,-,0.01,Rain,Light Rain,300,2013-01-09 08:53:00
3:14 AM,37.4,37.4,100,30.06,2.0,WNW,10.4,-,0.00,,Overcast,300,2013-01-09 09:14:00
3:53 AM,39.0,37.9,96,30.02,2.5,WNW,12.7,-,0.01,Rain,Light Rain,300,2013-01-09 09:53:00
4:20 AM,39.2,37.4,93,30.07,3.0,WNW,10.4,-,0.01,Rain,Light Rain,290,2013-01-09 10:20:00
4:53 AM,39.9,37.9,93,30.04,2.0,NW,10.4,-,0.04,Rain,Rain,310,2013-01-09 10:53:00
5:13 AM,39.2,37.4,93,30.06,3.0,NW,12.7,-,0.01,Rain,Light Rain,310,2013-01-09 11:13:00
5:53 AM,39.9,39.0,97,30.03,4.0,NW,13.8,-,0.04,Rain,Light Rain,320,2013-01-09 11:53:00
6:06 AM,41.0,39.2,93,30.07,2.0,NW,13.8,-,0.02,Rain,Rain,320,2013-01-09 12:06:00
6:33 AM,41.0,39.2,93,30.08,2.0,NNW,11.5,-,0.04,Rain,Light Rain,330,2013-01-09 12:33:00
6:41 AM,41.0,39.2,93,30.09,1.8,NNW,11.5,-,0.04,Rain,Light Rain,330,2013-01-09 12:41:00
6:49 AM,42.8,39.2,87,30.10,2.5,NNW,11.5,-,0.05,Rain,Light Rain,330,2013-01-09 12:49:00
6:53 AM,42.1,41.0,96,30.06,2.5,NW,12.7,-,0.05,Rain,Light Rain,320,2013-01-09 12:53:00
7:39 AM,42.8,41.0,93,30.11,1.5,NW,9.2,-,0.06,Rain,Light Rain,320,2013-01-09 13:39:00
7:53 AM,43.0,41.0,93,30.08,1.2,NW,10.4,-,0.07,Rain,Light Rain,320,2013-01-09 13:53:00
8:16 AM,42.8,42.8,100,30.13,1.0,NNW,10.4,-,0.03,Rain,Light Rain,330,2013-01-09 14:16:00
8:29 AM,42.8,42.8,100,30.13,0.8,North,10.4,-,0.04,Rain,Light Rain,350,2013-01-09 14:29:00
8:36 AM,44.6,42.8,93,30.13,1.2,North,12.7,-,0.04,Rain,Light Rain,360,2013-01-09 14:36:00
8:53 AM,44.1,42.1,93,30.10,1.5,North,17.3,24.2,0.05,Rain,Light Rain,350,2013-01-09 14:53:00
9:06 AM,42.8,42.8,100,30.15,1.0,North,18.4,-,0.02,Rain,Rain,360,2013-01-09 15:06:00
9:15 AM,42.8,42.8,100,30.15,1.5,North,17.3,-,0.03,,Overcast,360,2013-01-09 15:15:00
9:53 AM,43.0,42.1,97,30.12,1.8,NNW,13.8,-,0.09,Rain,Rain,340,2013-01-09 15:53:00
10:53 AM,43.0,41.0,93,30.11,1.8,North,16.1,23.0,0.14,Rain,Rain,350,2013-01-09 16:53:00
11:10 AM,42.8,41.0,93,30.14,2.0,North,16.1,-,0.02,Rain,Light Rain,360,2013-01-09 17:10:00
11:25 AM,42.8,41.0,93,30.13,1.8,NNW,12.7,-,0.03,Rain,Light Rain,330,2013-01-09 17:25:00
11:53 AM,42.1,39.9,92,30.10,1.5,North,13.8,-,0.05,Rain,Rain,350,2013-01-09 17:53:00
12:34 PM,41.0,39.2,93,30.09,2.0,NNW,13.8,-,0.09,Rain,Rain,330,2013-01-09 18:34:00
12:51 PM,41.0,39.2,93,30.08,3.0,NNW,13.8,-,0.11,Rain,Light Rain,330,2013-01-09 18:51:00
12:53 PM,41.0,39.9,96,30.05,3.0,NNW,16.1,-,0.11,Rain,Light Rain,330,2013-01-09 18:53:00
1:30 PM,39.2,39.2,100,30.06,2.5,NW,13.8,-,0.07,Rain,Rain,310,2013-01-09 19:30:00
1:53 PM,39.9,39.0,97,30.00,2.0,WNW,13.8,-,0.14,Rain,Rain,300,2013-01-09 19:53:00
2:23 PM,39.2,39.2,100,30.04,1.8,WNW,8.1,-,0.11,Rain,Heavy Rain,290,2013-01-09 20:23:00
2:53 PM,39.9,39.0,97,30.02,2.0,West,10.4,-,0.21,Rain,Rain,280,2013-01-09 20:53:00
3:18 PM,39.2,39.2,100,30.07,1.8,West,9.2,-,0.08,Rain,Rain,270,2013-01-09 21:18:00
3:29 PM,39.2,39.2,100,30.07,2.0,West,9.2,-,0.12,Rain,Rain,270,2013-01-09 21:29:00
3:50 PM,39.2,37.4,93,30.06,2.5,West,12.7,-,0.19,Rain,Rain,270,2013-01-09 21:50:00
3:53 PM,39.9,37.9,93,30.02,2.5,West,12.7,-,0.20,Rain,Heavy Rain,270,2013-01-09 21:53:00
3:55 PM,39.2,37.4,93,30.06,3.0,West,12.7,-,0.01,Rain,Heavy Rain,270,2013-01-09 21:55:00
4:01 PM,39.2,39.2,100,30.06,3.0,West,12.7,-,0.02,Rain,Rain,270,2013-01-09 22:01:00
4:53 PM,39.9,37.9,93,30.03,4.0,WNW,13.8,-,0.16,Rain,Rain,290,2013-01-09 22:53:00
5:02 PM,39.2,37.4,93,30.07,4.0,WNW,15.0,-,0.02,Rain,Rain,290,2013-01-09 23:02:00
5:40 PM,37.4,35.6,93,30.08,6.0,WNW,15.0,-,0.14,Rain,Rain,300,2013-01-09 23:40:00
5:53 PM,37.9,35.1,89,30.04,6.0,WNW,11.5,-,0.18,Rain,Rain,300,2013-01-09 23:53:00
6:53 PM,36.0,34.0,93,30.03,7.0,WNW,13.8,-,0.16,Rain,Rain,290,2013-01-10 00:53:00
7:08 PM,35.6,33.8,93,30.05,7.0,WNW,12.7,-,0.02,Rain,Rain,290,2013-01-10 01:08:00
7:19 PM,35.6,33.8,93,30.05,8.0,WNW,12.7,-,0.04,Rain,Rain,290,2013-01-10 01:19:00
7:50 PM,35.6,33.8,93,30.04,8.0,WNW,11.5,-,0.09,Rain,Light Rain,300,2013-01-10 01:50:00
7:53 PM,36.0,34.0,93,30.01,9.0,WNW,9.2,-,0.09,Rain,Light Rain,300,2013-01-10 01:53:00
8:53 PM,36.0,34.0,93,30.02,10.0,NW,13.8,-,0.08,Rain,Light Rain,310,2013-01-10 02:53:00
9:46 PM,37.4,35.6,93,30.05,10.0,WNW,12.7,-,0.01,,Overcast,290,2013-01-10 03:46:00
9:53 PM,37.0,35.1,93,30.01,10.0,WNW,15.0,-,0.01,,Overcast,290,2013-01-10 03:53:00
10:42 PM,37.4,35.6,93,30.05,10.0,WNW,15.0,-,N/A,,Overcast,290,2013-01-10 04:42:00
10:53 PM,37.9,36.0,93,30.01,10.0,WNW,15.0,-,N/A,,Overcast,290,2013-01-10 04:53:00
11:04 PM,37.4,35.6,93,30.05,7.0,West,13.8,20.7,N/A,,Overcast,280,2013-01-10 05:04:00
11:53 PM,39.0,37.9,96,30.02,4.0,WNW,12.7,-,0.00,,Overcast,290,2013-01-10 05:53:00